Time;durP1;ratioP1;P1;durP2;ratioP2;P2;SDS_P1;SDS_P2;PMS_P1;PMS_P2;Temp;Humidity;BMP_temperature;BMP_pressure;BME280_temperature;BME280_humidity;BME280_pressure;Samples;Min_cycle;Max_cycle;Signal;HPM_P1;HPM_P2
2023/11/19 00:01:47;;;;;;;41.10;22.40;;;;;;;0.87;100.00;101341.30;105671;1257;97970;-76
2023/11/19 00:04:36;;;;;;;45.90;23.30;;;;;;;0.86;100.00;101341.36;105983;1259;98584;-78
2023/11/19 00:07:21;;;;;;;44.40;22.90;;;;;;;0.84;100.00;101340.16;106685;1257;97161;-77
2023/11/19 00:10:12;;;;;;;41.70;22.40;;;;;;;0.83;100.00;101331.09;105649;1257;101379;-78
2023/11/19 00:12:58;;;;;;;40.30;22.20;;;;;;;0.83;100.00;101325.38;105791;1256;99069;-79
2023/11/19 00:15:45;;;;;;;43.20;22.00;;;;;;;0.83;100.00;101321.20;106052;1259;99403;-80
2023/11/19 00:18:30;;;;;;;42.40;22.50;;;;;;;0.83;100.00;101314.56;106159;1259;98590;-79
2023/11/19 00:21:16;;;;;;;44.10;22.40;;;;;;;0.81;100.00;101311.83;106332;1259;97948;-80
2023/11/19 00:24:01;;;;;;;52.00;26.10;;;;;;;0.83;100.00;101314.66;106207;1257;101355;-79
2023/11/19 00:26:47;;;;;;;45.80;24.10;;;;;;;0.86;100.00;101319.23;105876;1259;100056;-78
2023/11/19 00:29:32;;;;;;;46.50;22.80;;;;;;;0.89;100.00;101313.38;106182;1255;99066;-81
2023/11/19 00:32:19;;;;;;;40.90;22.20;;;;;;;0.91;100.00;101302.35;106952;1259;97885;-80
2023/11/19 00:35:06;;;;;;;45.60;25.00;;;;;;;0.93;100.00;101296.05;107184;1257;97811;-81
2023/11/19 00:37:53;;;;;;;43.00;24.60;;;;;;;0.93;100.00;101285.81;106597;1255;101985;-81
2023/11/19 00:40:40;;;;;;;43.90;23.10;;;;;;;0.94;100.00;101277.88;106116;1257;99108;-80
2023/11/19 00:43:27;;;;;;;42.70;21.50;;;;;;;0.94;100.00;101271.02;105770;1257;98059;-78
2023/11/19 00:46:13;;;;;;;47.80;23.90;;;;;;;0.94;100.00;101266.58;105919;1259;97890;-79
2023/11/19 00:49:00;;;;;;;49.40;24.20;;;;;;;0.97;100.00;101266.58;105976;1259;98495;-78
2023/11/19 00:51:46;;;;;;;44.30;23.60;;;;;;;0.98;100.00;101268.60;106155;1259;101433;-78
2023/11/19 00:54:31;;;;;;;46.10;23.50;;;;;;;0.97;100.00;101267.27;105909;1255;126123;-78
2023/11/19 00:57:16;;;;;;;51.30;25.60;;;;;;;0.97;100.00;101264.11;106052;1257;99196;-79
2023/11/19 01:00:08;;;;;;;50.80;26.20;;;;;;;0.99;100.00;101262.91;106007;1256;97960;-77
2023/11/19 01:02:54;;;;;;;50.70;25.20;;;;;;;1.00;100.00;101252.66;105686;1257;99273;-78
2023/11/19 01:05:40;;;;;;;49.70;25.60;;;;;;;0.99;100.00;101250.23;105653;1259;101384;-78
2023/11/19 01:08:26;;;;;;;47.00;24.20;;;;;;;0.96;100.00;101249.73;105958;1257;99525;-79
2023/11/19 01:11:21;;;;;;;54.80;26.00;;;;;;;0.96;100.00;101244.98;105966;1256;97870;-78
2023/11/19 01:14:06;;;;;;;52.10;24.00;;;;;;;0.95;100.00;101241.57;105851;1262;98034;-77
2023/11/19 01:16:53;;;;;;;50.90;25.80;;;;;;;0.95;100.00;101237.36;105556;1259;98557;-78
2023/11/19 01:19:39;;;;;;;50.30;25.10;;;;;;;0.97;100.00;101233.52;105677;1256;102682;-79
2023/11/19 01:22:24;;;;;;;47.90;24.20;;;;;;;0.97;100.00;101230.66;105976;1259;100032;-77
2023/11/19 01:25:10;;;;;;;51.40;25.90;;;;;;;0.98;100.00;101232.59;105898;1261;98573;-79
2023/11/19 01:27:59;;;;;;;44.20;24.30;;;;;;;0.99;100.00;101232.48;106066;1257;98240;-79
2023/11/19 01:30:44;;;;;;;53.10;26.10;;;;;;;1.00;100.00;101229.22;105915;1257;98476;-80
2023/11/19 01:33:29;;;;;;;55.50;26.80;;;;;;;1.01;100.00;101226.70;105908;1256;102654;-79
2023/11/19 01:36:15;;;;;;;50.40;25.30;;;;;;;1.00;100.00;101219.77;106036;1259;100422;-79
2023/11/19 01:39:01;;;;;;;46.60;24.10;;;;;;;1.02;100.00;101221.92;106113;1259;97970;-78
2023/11/19 01:41:47;;;;;;;54.70;27.50;;;;;;;1.03;100.00;101219.67;106481;1257;97825;-80
2023/11/19 01:44:33;;;;;;;47.70;25.40;;;;;;;1.06;100.00;101208.61;105954;1259;97985;-78
2023/11/19 01:47:19;;;;;;;58.80;28.80;;;;;;;1.06;100.00;101206.10;106424;1259;101330;-78
2023/11/19 01:50:07;;;;;;;53.80;26.80;;;;;;;1.08;100.00;101199.67;106436;1257;99072;-79
2023/11/19 01:52:54;;;;;;;61.50;28.50;;;;;;;1.09;100.00;101185.16;107217;1256;98370;-80
2023/11/19 01:55:40;;;;;;;60.30;30.20;;;;;;;1.10;100.00;101183.50;107084;1256;97850;-79
2023/11/19 01:58:26;;;;;;;59.30;28.60;;;;;;;1.10;100.00;101186.66;106651;1256;97790;-80
2023/11/19 02:01:13;;;;;;;59.80;29.20;;;;;;;1.11;100.00;101187.28;106798;1259;101232;-80
2023/11/19 02:03:59;;;;;;;68.90;30.70;;;;;;;1.13;100.00;101179.59;106630;1259;99073;-80
2023/11/19 02:06:52;;;;;;;65.20;30.30;;;;;;;1.14;100.00;101172.09;106502;1259;99176;-79
2023/11/19 02:09:38;;;;;;;67.50;31.20;;;;;;;1.16;100.00;101170.87;106806;1260;97964;-81
2023/11/19 02:12:23;;;;;;;64.80;29.00;;;;;;;1.18;100.00;101173.70;106674;1257;97905;-80
2023/11/19 02:15:10;;;;;;;59.40;29.00;;;;;;;1.21;100.00;101168.06;106633;1255;102098;-80
2023/11/19 02:17:56;;;;;;;72.60;34.10;;;;;;;1.22;100.00;101161.44;106801;1259;99077;-79
2023/11/19 02:20:41;;;;;;;71.20;33.80;;;;;;;1.23;100.00;101163.16;105939;1256;98700;-78
2023/11/19 02:23:31;;;;;;;72.00;33.10;;;;;;;1.23;100.00;101166.89;105522;1259;97877;-77
2023/11/19 02:26:28;;;;;;;77.50;34.70;;;;;;;1.20;100.00;101165.81;105959;1257;98548;-78
2023/11/19 02:29:14;;;;;;;75.30;33.70;;;;;;;1.19;100.00;101164.52;106138;1259;101491;-79
2023/11/19 02:32:00;;;;;;;73.90;33.50;;;;;;;1.21;100.00;101166.66;105951;1260;99074;-78
2023/11/19 02:34:45;;;;;;;72.40;31.10;;;;;;;1.20;100.00;101157.92;105917;1262;98419;-77
2023/11/19 02:37:30;;;;;;;66.00;29.20;;;;;;;1.19;100.00;101150.05;105965;1257;98021;-78
2023/11/19 02:40:17;;;;;;;65.90;29.80;;;;;;;1.22;100.00;101146.34;106053;1257;97863;-79
2023/11/19 02:43:04;;;;;;;66.10;29.60;;;;;;;1.24;100.00;101136.66;105629;1257;101453;-78
2023/11/19 02:45:50;;;;;;;66.00;30.20;;;;;;;1.26;100.00;101132.33;105719;1259;100558;-78
2023/11/19 02:48:36;;;;;;;71.90;32.50;;;;;;;1.26;100.00;101126.67;106312;1259;99336;-79
2023/11/19 02:51:21;;;;;;;72.70;31.30;;;;;;;1.26;100.00;101117.17;106177;1259;97953;-79
2023/11/19 02:54:07;;;;;;;82.90;34.90;;;;;;;1.26;100.00;101109.98;106080;1257;97958;-78
2023/11/19 02:56:59;;;;;;;79.70;34.00;;;;;;;1.25;100.00;101105.46;106106;1257;102581;-79
2023/11/19 02:59:45;;;;;;;67.60;30.30;;;;;;;1.23;100.00;101104.77;106084;1257;99155;-78
2023/11/19 03:02:33;;;;;;;78.00;34.00;;;;;;;1.22;100.00;101091.79;106104;1259;97972;-78
2023/11/19 03:05:19;;;;;;;71.90;33.40;;;;;;;1.22;100.00;101088.65;106006;1260;97891;-78
2023/11/19 03:08:05;;;;;;;72.00;33.20;;;;;;;1.21;100.00;101095.21;106181;1258;97873;-79
2023/11/19 03:10:51;;;;;;;71.90;32.40;;;;;;;1.23;100.00;101088.43;106085;1260;101333;-79
2023/11/19 03:13:36;;;;;;;75.00;33.00;;;;;;;1.25;100.00;101084.93;106017;1254;99129;-78
2023/11/19 03:16:22;;;;;;;73.50;34.20;;;;;;;1.26;100.00;101076.56;106023;1259;98563;-78
2023/11/19 03:19:08;;;;;;;71.30;30.70;;;;;;;1.28;100.00;101067.42;105834;1257;97859;-77
2023/11/19 03:21:53;;;;;;;68.70;31.20;;;;;;;1.29;100.00;101056.98;105541;1257;98396;-77
2023/11/19 03:24:39;;;;;;;69.70;31.40;;;;;;;1.28;100.00;101046.09;106040;1257;101549;-78
2023/11/19 03:27:25;;;;;;;69.90;31.70;;;;;;;1.30;100.00;101041.94;105714;1257;99076;-78
2023/11/19 03:30:10;;;;;;;73.40;31.60;;;;;;;1.30;100.00;101039.45;106043;1257;98502;-78
2023/11/19 03:32:57;;;;;;;65.30;30.30;;;;;;;1.28;100.00;101033.45;105919;1257;97950;-78
2023/11/19 03:35:42;;;;;;;75.20;33.50;;;;;;;1.28;100.00;101030.69;105727;1257;98399;-78
2023/11/19 03:38:28;;;;;;;71.80;32.70;;;;;;;1.27;100.00;101030.19;106051;1259;102280;-78
2023/11/19 03:41:15;;;;;;;64.70;30.90;;;;;;;1.27;100.00;101031.58;106089;1261;101070;-79
2023/11/19 03:44:00;;;;;;;70.10;33.50;;;;;;;1.27;100.00;101030.05;105922;1260;99352;-78
2023/11/19 03:46:47;;;;;;;75.90;32.50;;;;;;;1.27;100.00;101022.80;105504;1262;98314;-78
2023/11/19 03:49:32;;;;;;;73.00;32.30;;;;;;;1.27;100.00;101018.23;105924;1257;99576;-79
2023/11/19 03:52:18;;;;;;;64.90;31.50;;;;;;;1.26;100.00;101009.48;106248;1256;101392;-80
2023/11/19 03:55:08;;;;;;;74.30;34.30;;;;;;;1.27;100.00;101008.58;106458;1257;99136;-78
2023/11/19 03:57:54;;;;;;;70.50;32.20;;;;;;;1.27;100.00;101006.05;105503;1260;98058;-79
2023/11/19 04:00:40;;;;;;;69.70;32.20;;;;;;;1.27;100.00;101000.46;105975;1260;97896;-78
2023/11/19 04:03:26;;;;;;;66.60;30.70;;;;;;;1.27;100.00;100996.66;105816;1256;99380;-78
2023/11/19 04:06:12;;;;;;;66.60;30.20;;;;;;;1.25;100.00;100992.33;106097;1256;101848;-79
2023/11/19 04:08:58;;;;;;;66.40;29.70;;;;;;;1.27;100.00;100986.95;106185;1257;99063;-78
2023/11/19 04:11:43;;;;;;;64.20;29.90;;;;;;;1.28;100.00;100982.92;106116;1260;106603;-79
2023/11/19 04:14:29;;;;;;;70.20;31.00;;;;;;;1.29;100.00;100973.42;106010;1261;97967;-78
2023/11/19 04:17:15;;;;;;;73.40;29.90;;;;;;;1.28;100.00;100967.46;106124;1257;98842;-79
2023/11/19 04:20:01;;;;;;;65.70;28.70;;;;;;;1.29;100.00;100962.52;106114;1259;102131;-79
2023/11/19 04:22:46;;;;;;;68.00;29.60;;;;;;;1.30;100.00;100964.92;106009;1259;99073;-77
2023/11/19 04:25:32;;;;;;;65.60;30.90;;;;;;;1.30;100.00;100963.79;105915;1256;99017;-78
2023/11/19 04:28:17;;;;;;;68.80;31.30;;;;;;;1.32;100.00;100960.52;106045;1257;97771;-79
2023/11/19 04:31:03;;;;;;;70.70;31.00;;;;;;;1.33;100.00;100949.35;106007;1259;96861;-78
2023/11/19 04:33:49;;;;;;;70.30;30.50;;;;;;;1.34;100.00;100942.59;106004;1259;102633;-79
2023/11/19 04:36:37;;;;;;;76.40;30.90;;;;;;;1.35;100.00;100944.79;106101;1257;99702;-79
2023/11/19 04:39:22;;;;;;;67.10;29.00;;;;;;;1.35;100.00;100945.35;106359;1257;98346;-80
2023/11/19 04:42:08;;;;;;;69.10;28.90;;;;;;;1.35;100.00;100942.30;106603;1259;97953;-80
2023/11/19 04:44:54;;;;;;;66.60;28.60;;;;;;;1.36;100.00;100931.86;105846;1257;98475;-77
2023/11/19 04:47:39;;;;;;;63.00;28.70;;;;;;;1.36;100.00;100926.05;105995;1259;101423;-79
2023/11/19 04:50:27;;;;;;;67.60;29.30;;;;;;;1.35;100.00;100925.98;105789;1257;99218;-77
2023/11/19 04:53:12;;;;;;;72.90;30.30;;;;;;;1.33;100.00;100928.77;105549;1257;97967;-78
2023/11/19 04:55:59;;;;;;;66.50;28.80;;;;;;;1.32;100.00;100925.10;105900;1260;99571;-78
2023/11/19 04:58:44;;;;;;;73.60;30.70;;;;;;;1.34;100.00;100922.00;106217;1258;98788;-79
2023/11/19 05:01:29;;;;;;;68.60;29.70;;;;;;;1.35;100.00;100919.08;106213;1260;102728;-79
2023/11/19 05:04:15;;;;;;;62.70;28.00;;;;;;;1.38;100.00;100915.71;106557;1266;99199;-80
2023/11/19 05:07:01;;;;;;;66.40;29.10;;;;;;;1.39;100.00;100908.40;106858;1259;97941;-79
2023/11/19 05:09:46;;;;;;;68.00;28.80;;;;;;;1.41;100.00;100904.85;106687;1259;98546;-79
2023/11/19 05:12:32;;;;;;;60.80;27.40;;;;;;;1.44;100.00;100895.81;105960;1259;98482;-79
2023/11/19 05:15:17;;;;;;;62.00;28.20;;;;;;;1.46;100.00;100894.06;106218;1259;101354;-79
2023/11/19 05:18:04;;;;;;;63.60;28.40;;;;;;;1.47;100.00;100889.32;106073;1260;100717;-78
2023/11/19 05:20:50;;;;;;;61.70;27.20;;;;;;;1.46;100.00;100887.79;107438;1259;97951;-78
2023/11/19 05:23:35;;;;;;;59.60;26.20;;;;;;;1.46;100.00;100883.75;106213;1257;97960;-80
2023/11/19 05:26:23;;;;;;;65.70;29.10;;;;;;;1.47;100.00;100881.55;106122;1259;99347;-78
2023/11/19 05:29:09;;;;;;;60.30;27.20;;;;;;;1.48;100.00;100882.84;106101;1260;102319;-79
2023/11/19 05:31:55;;;;;;;57.00;26.70;;;;;;;1.50;100.00;100883.36;106528;1257;100706;-79
2023/11/19 05:34:41;;;;;;;59.20;27.60;;;;;;;1.52;100.00;100884.44;106784;1257;98993;-78
2023/11/19 05:37:26;;;;;;;63.20;28.90;;;;;;;1.54;100.00;100876.71;106035;1257;98047;-78
2023/11/19 05:40:15;;;;;;;57.70;26.10;;;;;;;1.56;100.00;100875.34;106886;1260;96286;-80
2023/11/19 05:43:01;;;;;;;54.00;25.70;;;;;;;1.58;100.00;100859.88;106626;1259;102152;-79
2023/11/19 05:45:47;;;;;;;56.60;26.40;;;;;;;1.60;100.00;100856.59;106332;1257;99772;-79
2023/11/19 05:48:33;;;;;;;56.60;25.80;;;;;;;1.60;100.00;100845.65;106318;1256;98816;-78
2023/11/19 05:51:18;;;;;;;60.60;27.80;;;;;;;1.60;100.00;100846.57;105940;1260;97908;-78
2023/11/19 05:54:06;;;;;;;58.70;26.50;;;;;;;1.60;100.00;100846.89;106086;1257;98505;-79
2023/11/19 05:56:54;;;;;;;55.90;25.60;;;;;;;1.61;100.00;100842.92;106263;1263;101385;-79
2023/11/19 05:59:39;;;;;;;58.20;27.10;;;;;;;1.63;100.00;100844.36;106892;1257;99133;-80
2023/11/19 06:02:24;;;;;;;57.60;27.10;;;;;;;1.64;100.00;100846.88;106680;1256;98962;-78
2023/11/19 06:05:10;;;;;;;56.10;25.40;;;;;;;1.66;100.00;100848.52;106712;1255;98695;-79
2023/11/19 06:07:57;;;;;;;57.50;25.90;;;;;;;1.68;100.00;100843.61;106930;1260;97826;-80
2023/11/19 06:10:46;;;;;;;55.30;27.30;;;;;;;1.69;100.00;100838.91;106526;1257;102780;-78
2023/11/19 06:13:31;;;;;;;64.30;27.70;;;;;;;1.69;100.00;100830.98;106582;1259;100109;-79
2023/11/19 06:16:17;;;;;;;58.50;26.80;;;;;;;1.69;100.00;100830.11;105806;1260;99502;-79
2023/11/19 06:19:03;;;;;;;57.50;26.30;;;;;;;1.68;100.00;100821.79;106058;1259;98043;-79
2023/11/19 06:21:48;;;;;;;61.30;27.10;;;;;;;1.66;100.00;100818.22;105981;1257;98308;-79
2023/11/19 06:24:34;;;;;;;58.30;25.20;;;;;;;1.64;100.00;100819.30;106001;1257;101382;-79
2023/11/19 06:27:19;;;;;;;58.30;26.80;;;;;;;1.63;100.00;100815.16;106015;1259;100357;-77
2023/11/19 06:30:05;;;;;;;56.90;26.40;;;;;;;1.62;100.00;100811.70;106114;1260;97989;-79
2023/11/19 06:32:51;;;;;;;52.70;25.50;;;;;;;1.63;100.00;100811.28;107391;1260;97956;-77
2023/11/19 06:35:36;;;;;;;58.90;27.10;;;;;;;1.64;100.00;100810.11;106273;1260;97963;-78
2023/11/19 06:38:22;;;;;;;61.70;28.10;;;;;;;1.65;100.00;100807.20;106055;1259;102678;-77
2023/11/19 06:41:11;;;;;;;49.00;23.20;;;;;;;1.65;100.00;100804.25;105961;1261;99270;-78
2023/11/19 06:43:57;;;;;;;50.20;24.90;;;;;;;1.64;100.00;100800.98;105934;1260;99292;-77
2023/11/19 06:46:42;;;;;;;49.80;24.70;;;;;;;1.63;100.00;100797.71;105490;1259;97994;-78
2023/11/19 06:49:28;;;;;;;57.60;27.60;;;;;;;1.61;100.00;100793.63;105592;1257;98390;-77
2023/11/19 06:52:14;;;;;;;54.30;25.70;;;;;;;1.60;100.00;100791.76;105917;1258;102153;-77
2023/11/19 06:54:59;;;;;;;52.20;24.90;;;;;;;1.58;100.00;100787.30;106125;1259;99166;-78
2023/11/19 06:57:45;;;;;;;52.70;25.30;;;;;;;1.58;100.00;100787.18;105890;1260;98027;-78
2023/11/19 07:00:32;;;;;;;48.70;25.60;;;;;;;1.57;100.00;100780.39;105971;1257;98476;-79
2023/11/19 07:03:17;;;;;;;46.30;24.00;;;;;;;1.58;100.00;100775.90;105954;1260;97870;-79
2023/11/19 07:06:03;;;;;;;43.10;22.60;;;;;;;1.60;100.00;100769.45;105879;1259;101370;-78
2023/11/19 07:08:49;;;;;;;45.70;23.40;;;;;;;1.61;100.00;100764.76;105829;1260;100851;-77
2023/11/19 07:11:36;;;;;;;46.10;23.60;;;;;;;1.64;100.00;100762.11;105428;1260;97965;-79
2023/11/19 07:14:23;;;;;;;43.80;22.00;;;;;;;1.64;100.00;100756.77;105888;1259;97939;-79
2023/11/19 07:17:10;;;;;;;40.50;20.80;;;;;;;1.63;100.00;100749.45;105803;1259;98530;-78
2023/11/19 07:19:59;;;;;;;40.60;21.60;;;;;;;1.62;100.00;100747.64;105891;1257;102100;-77
2023/11/19 07:22:47;;;;;;;37.80;20.00;;;;;;;1.60;100.00;100748.13;105918;1260;100377;-78
2023/11/19 07:25:32;;;;;;;36.90;19.90;;;;;;;1.59;100.00;100749.96;105735;1259;99123;-79
2023/11/19 07:28:18;;;;;;;37.10;19.10;;;;;;;1.58;100.00;100747.61;106072;1257;98042;-79
2023/11/19 07:31:04;;;;;;;37.50;20.30;;;;;;;1.60;100.00;100745.69;105936;1268;97841;-78
2023/11/19 07:33:50;;;;;;;36.10;18.70;;;;;;;1.63;100.00;100737.69;106067;1265;101448;-79
2023/11/19 07:36:35;;;;;;;35.90;19.10;;;;;;;1.65;100.00;100734.16;105657;1256;100391;-77
2023/11/19 07:39:22;;;;;;;37.50;19.50;;;;;;;1.64;100.00;100731.99;105466;1258;97943;-78
2023/11/19 07:42:09;;;;;;;35.90;19.80;;;;;;;1.63;100.00;100732.05;105841;1260;97958;-78
2023/11/19 07:44:56;;;;;;;36.40;19.50;;;;;;;1.63;100.00;100732.73;105590;1257;99052;-78
2023/11/19 07:47:42;;;;;;;32.10;17.80;;;;;;;1.66;100.00;100728.77;106101;1261;102615;-77
2023/11/19 07:50:28;;;;;;;31.10;19.70;;;;;;;1.66;100.00;100727.03;105617;1261;99115;-76
2023/11/19 07:53:13;;;;;;;76.70;43.20;;;;;;;1.65;100.00;100726.59;105735;1259;98489;-86
2023/11/19 07:56:02;;;;;;;48.10;28.00;;;;;;;1.65;100.00;100718.19;106193;1263;98091;-83
2023/11/19 07:58:48;;;;;;;37.50;20.20;;;;;;;1.63;100.00;100709.14;106092;1257;97143;-82
2023/11/19 08:01:33;;;;;;;63.10;31.00;;;;;;;1.62;100.00;100707.45;106060;1261;102734;-83
2023/11/19 08:04:19;;;;;;;76.50;36.80;;;;;;;1.63;100.00;100703.05;106297;1257;100397;-82
2023/11/19 08:07:05;;;;;;;80.90;43.90;;;;;;;1.65;100.00;100704.13;106249;1263;100228;-81
2023/11/19 08:09:51;;;;;;;43.70;25.40;;;;;;;1.66;100.00;100706.80;106426;1260;98050;-81
2023/11/19 08:12:37;;;;;;;44.70;23.40;;;;;;;1.70;100.00;100698.58;106184;1261;97978;-82
2023/11/19 08:15:23;;;;;;;38.50;20.60;;;;;;;1.71;100.00;100695.97;106112;1257;103080;-82
2023/11/19 08:18:08;;;;;;;37.20;20.60;;;;;;;1.72;100.00;100692.41;106214;1260;99683;-81
2023/11/19 08:20:56;;;;;;;35.10;20.20;;;;;;;1.75;100.00;100683.21;106093;1260;99076;-84
2023/11/19 08:23:42;;;;;;;35.70;18.30;;;;;;;1.79;100.00;100680.51;106162;1263;97947;-82
2023/11/19 08:26:27;;;;;;;36.50;19.80;;;;;;;1.84;100.00;100681.52;106405;1258;98492;-80
2023/11/19 08:29:14;;;;;;;28.70;16.90;;;;;;;1.86;100.00;100677.64;106441;1257;101323;-81
2023/11/19 08:32:03;;;;;;;30.90;16.10;;;;;;;1.89;100.00;100672.41;106222;1260;99067;-82
2023/11/19 08:37:00;;;;;;;31.50;18.20;;;;;;;1.94;100.00;100664.84;103819;1289;635696;-86
2023/11/19 08:39:46;;;;;;;29.50;16.20;;;;;;;1.92;100.00;100658.47;105990;1264;96011;-84
2023/11/19 08:42:35;;;;;;;32.30;17.70;;;;;;;1.93;100.00;100651.85;105884;1271;95909;-87
2023/11/19 08:45:21;;;;;;;32.70;16.70;;;;;;;1.92;100.00;100646.63;106349;1264;98032;-89
2023/11/19 08:48:07;;;;;;;33.30;19.70;;;;;;;1.92;100.00;100641.41;106442;1262;100250;-83
2023/11/19 08:50:53;;;;;;;34.20;18.70;;;;;;;1.94;100.00;100627.32;106306;1257;145531;-84
2023/11/19 08:53:38;;;;;;;30.70;18.00;;;;;;;1.98;100.00;100623.77;106131;1259;96014;-83
2023/11/19 08:56:24;;;;;;;27.60;16.50;;;;;;;2.02;100.00;100622.17;106256;1260;95911;-85
2023/11/19 08:59:10;;;;;;;32.40;17.90;;;;;;;2.04;100.00;100618.97;106126;1258;97362;-85
2023/11/19 09:01:57;;;;;;;29.40;17.80;;;;;;;2.04;100.00;100609.01;106299;1257;101227;-83
2023/11/19 09:04:43;;;;;;;31.30;16.80;;;;;;;2.02;100.00;100609.14;105918;1258;98519;-81
2023/11/19 09:07:28;;;;;;;30.10;17.00;;;;;;;2.03;100.00;100607.80;106330;1262;95905;-81
2023/11/19 09:10:13;;;;;;;28.30;16.80;;;;;;;2.07;100.00;100606.13;106639;1257;95842;-81
2023/11/19 09:12:59;;;;;;;28.10;16.10;;;;;;;2.09;100.00;100603.23;106336;1257;99915;-80
2023/11/19 09:15:44;;;;;;;29.90;16.60;;;;;;;2.07;100.00;100603.75;106504;1257;100923;-80
2023/11/19 09:18:31;;;;;;;28.50;16.90;;;;;;;2.06;100.00;100602.45;106560;1257;99179;-81
2023/11/19 09:21:17;;;;;;;29.40;15.70;;;;;;;2.07;100.00;100601.46;106428;1257;95879;-82
2023/11/19 09:24:03;;;;;;;30.40;16.80;;;;;;;2.07;100.00;100600.94;105526;1260;96072;-77
2023/11/19 09:26:49;;;;;;;26.30;15.80;;;;;;;2.10;100.00;100592.61;105327;1259;99965;-78
2023/11/19 09:29:34;;;;;;;27.50;15.90;;;;;;;2.14;100.00;100588.36;105435;1261;99819;-76
2023/11/19 09:32:19;;;;;;;28.10;15.40;;;;;;;2.16;100.00;100586.29;105527;1258;99279;-77
2023/11/19 09:35:06;;;;;;;29.50;16.40;;;;;;;2.17;100.00;100581.23;106712;1260;95893;-84
2023/11/19 09:37:52;;;;;;;28.40;15.90;;;;;;;2.18;100.00;100574.83;106048;1259;96056;-83
2023/11/19 09:40:38;;;;;;;29.80;15.50;;;;;;;2.16;100.00;100571.06;106238;1257;99998;-81
2023/11/19 09:43:26;;;;;;;27.00;15.20;;;;;;;2.13;100.00;100566.21;106019;1262;100312;-82
2023/11/19 09:46:15;;;;;;;25.10;14.50;;;;;;;2.14;100.00;100562.10;106377;1257;97724;-82
2023/11/19 09:49:02;;;;;;;28.50;16.80;;;;;;;2.17;100.00;100557.27;106115;1257;97228;-80
2023/11/19 09:51:48;;;;;;;26.90;16.40;;;;;;;2.18;100.00;100550.46;106259;1257;96024;-83
2023/11/19 09:54:35;;;;;;;28.40;15.70;;;;;;;2.18;100.00;100539.17;106147;1260;98626;-82
2023/11/19 09:57:21;;;;;;;28.30;16.50;;;;;;;2.19;100.00;100536.48;106345;1260;99154;-83
2023/11/19 10:00:10;;;;;;;24.50;15.50;;;;;;;2.21;100.00;100534.56;106155;1260;97895;-86
2023/11/19 10:02:57;;;;;;;30.50;17.40;;;;;;;2.20;100.00;100531.61;105921;1264;95958;-77
2023/11/19 10:05:42;;;;;;;29.40;16.50;;;;;;;2.20;100.00;100524.77;105645;1257;97289;-78
2023/11/19 10:08:29;;;;;;;26.40;16.10;;;;;;;2.17;100.00;100520.98;105601;1259;100066;-78
2023/11/19 10:11:15;;;;;;;47.30;28.50;;;;;;;2.18;100.00;100521.60;106238;1263;99120;-79
2023/11/19 10:14:02;;;;;;;91.60;48.20;;;;;;;2.19;100.00;100515.84;106217;1262;98973;-80
2023/11/19 10:16:47;;;;;;;42.90;25.80;;;;;;;2.18;100.00;100515.44;106594;1257;95311;-80
2023/11/19 10:19:33;;;;;;;32.20;20.00;;;;;;;2.17;100.00;100509.00;106671;1260;95953;-81
2023/11/19 10:22:19;;;;;;;32.20;19.60;;;;;;;2.19;100.00;100503.57;106613;1257;98689;-81
2023/11/19 10:25:21;;;;;;;32.10;18.90;;;;;;;2.21;100.00;100495.11;106582;1263;99868;-79
2023/11/19 10:28:07;;;;;;;29.40;16.70;;;;;;;2.22;100.00;100488.67;106580;1257;99148;-81
2023/11/19 10:30:56;;;;;;;30.80;19.00;;;;;;;2.23;100.00;100478.35;106732;1257;95854;-80
2023/11/19 10:33:44;;;;;;;36.50;21.70;;;;;;;2.24;100.00;100468.36;106725;1257;94309;-80
2023/11/19 10:36:40;;;;;;;30.70;18.70;;;;;;;2.24;100.00;100460.08;106709;1257;101018;-81
2023/11/19 10:39:55;;;;;;;28.70;17.40;;;;;;;2.26;100.00;100443.56;106698;1257;99097;-80
2023/11/19 10:42:41;;;;;;;25.50;16.00;;;;;;;2.25;100.00;100439.25;106698;1257;97859;-81
2023/11/19 10:45:27;;;;;;;28.20;15.60;;;;;;;2.24;100.00;100436.66;106809;1257;95895;-81
2023/11/19 10:48:12;;;;;;;28.40;15.70;;;;;;;2.25;100.00;100433.02;106695;1257;97196;-81
2023/11/19 10:50:58;;;;;;;30.20;16.20;;;;;;;2.26;100.00;100427.80;107008;1257;99220;-81
2023/11/19 10:53:45;;;;;;;28.80;19.50;;;;;;;2.28;100.00;100417.86;107876;1257;99970;-85
2023/11/19 10:56:34;;;;;;;28.40;17.60;;;;;;;2.28;100.00;100413.54;106492;1264;98351;-91
2023/11/19 10:59:21;;;;;;;29.30;15.50;;;;;;;2.28;100.00;100404.55;106770;1265;95653;-92
2023/11/19 11:02:13;;;;;;;28.20;16.00;;;;;;;2.28;100.00;100401.80;106491;1257;95696;-81
2023/11/19 11:05:00;;;;;;;27.00;15.70;;;;;;;2.28;100.00;100397.22;106756;1258;99839;-81
2023/11/19 11:07:46;;;;;;;29.30;15.60;;;;;;;2.28;100.00;100387.88;106790;1257;99245;-81
2023/11/19 11:10:39;;;;;;;33.50;21.00;;;;;;;2.27;100.00;100377.16;106763;1257;98982;-81
2023/11/19 11:13:29;;;;;;;37.00;22.70;;;;;;;2.29;100.00;100364.66;106596;1257;97097;-80
2023/11/19 11:16:18;;;;;;;36.30;22.00;;;;;;;2.30;100.00;100359.27;106650;1257;97081;-81
2023/11/19 11:19:04;;;;;;;29.50;17.50;;;;;;;2.31;100.00;100356.89;106728;1259;100413;-81
2023/11/19 11:21:54;;;;;;;32.70;17.80;;;;;;;2.31;100.00;100352.70;106585;1257;99141;-81
2023/11/19 11:24:42;;;;;;;27.70;15.60;;;;;;;2.31;100.00;100344.80;106771;1257;98947;-79
2023/11/19 11:27:52;;;;;;;29.70;16.70;;;;;;;2.31;100.00;100339.68;106660;1257;95493;-80
2023/11/19 11:30:47;;;;;;;40.30;22.60;;;;;;;2.32;100.00;100329.17;106559;1260;95826;-81
2023/11/19 11:33:58;;;;;;;32.70;18.50;;;;;;;2.33;100.00;100324.14;106767;1257;99868;-80
2023/11/19 11:37:03;;;;;;;27.70;17.70;;;;;;;2.31;100.00;100322.36;106636;1260;99159;-81
2023/11/19 11:39:50;;;;;;;35.00;21.90;;;;;;;2.31;100.00;100317.23;106397;1257;97825;-80
2023/11/19 11:42:38;;;;;;;31.20;20.60;;;;;;;2.32;100.00;100308.39;106690;1258;95822;-80
2023/11/19 11:45:39;;;;;;;31.80;18.60;;;;;;;2.32;100.00;100299.73;106566;1259;95994;-80
2023/11/19 11:48:27;;;;;;;30.20;17.70;;;;;;;2.32;100.00;100294.45;106920;1254;100033;-79
2023/11/19 11:51:13;;;;;;;33.70;19.40;;;;;;;2.32;100.00;100285.77;106907;1254;99090;-80
2023/11/19 11:53:59;;;;;;;239.30;84.10;;;;;;;2.34;100.00;100278.20;106857;1253;99097;-81
2023/11/19 11:57:08;;;;;;;277.70;110.50;;;;;;;2.37;100.00;100272.85;106640;1253;95915;-80
2023/11/19 11:59:53;;;;;;;133.20;63.70;;;;;;;2.40;100.00;100270.12;106652;1253;95913;-82
2023/11/19 12:02:39;;;;;;;321.10;125.40;;;;;;;2.40;100.00;100268.02;106348;1254;100099;-84
2023/11/19 12:05:25;;;;;;;89.50;46.80;;;;;;;2.38;100.00;100262.42;106469;1254;100201;-84
2023/11/19 12:08:14;;;;;;;135.00;69.40;;;;;;;2.34;100.00;100259.59;106471;1254;97721;-83
2023/11/19 12:11:01;;;;;;;64.10;36.70;;;;;;;2.33;100.00;100259.48;106986;1256;95918;-85
2023/11/19 12:13:55;;;;;;;158.70;93.00;;;;;;;2.32;100.00;100255.54;106374;1254;95928;-86
2023/11/19 12:16:41;;;;;;;62.00;38.30;;;;;;;2.33;100.00;100256.63;106277;1253;98718;-84
2023/11/19 12:19:27;;;;;;;41.70;23.20;;;;;;;2.34;100.00;100254.62;106297;1254;100828;-84
2023/11/19 12:22:14;;;;;;;49.60;30.20;;;;;;;2.37;100.00;100254.22;106878;1256;107579;-86
2023/11/19 12:25:01;;;;;;;35.60;19.80;;;;;;;2.38;100.00;100253.18;106387;1262;95816;-84
2023/11/19 12:27:49;;;;;;;32.90;21.10;;;;;;;2.40;100.00;100251.95;106546;1254;95951;-82
2023/11/19 12:30:35;;;;;;;42.30;25.10;;;;;;;2.41;100.00;100252.28;106495;1254;100838;-82